sensor_id;sensor_type;location;lat;lon;timestamp;pressure;altitude;pressure_sealevel;temperature;humidity
64551;BME280;50945;44.472;-123.352;2023-03-01T00:02:15;99140.22;;;4.25;87.36
64551;BME280;50945;44.472;-123.352;2023-03-01T00:04:41;99133.25;;;4.31;87.54
64551;BME280;50945;44.472;-123.352;2023-03-01T00:07:07;99137.97;;;4.37;87.51
64551;BME280;50945;44.472;-123.352;2023-03-01T00:09:35;99140.31;;;4.40;87.30
64551;BME280;50945;44.472;-123.352;2023-03-01T00:12:02;99144.91;;;4.40;86.72
64551;BME280;50945;44.472;-123.352;2023-03-01T00:14:28;99150.31;;;4.40;86.92
64551;BME280;50945;44.472;-123.352;2023-03-01T00:16:54;99151.84;;;4.34;86.72
64551;BME280;50945;44.472;-123.352;2023-03-01T00:19:21;99166.44;;;4.25;85.38
64551;BME280;50945;44.472;-123.352;2023-03-01T00:21:48;99163.56;;;4.18;85.97
64551;BME280;50945;44.472;-123.352;2023-03-01T00:24:14;99165.09;;;4.12;86.91
64551;BME280;50945;44.472;-123.352;2023-03-01T00:26:41;99167.47;;;4.07;87.41
64551;BME280;50945;44.472;-123.352;2023-03-01T00:29:07;99162.56;;;4.03;87.96
64551;BME280;50945;44.472;-123.352;2023-03-01T00:31:33;99169.19;;;4.00;89.38
64551;BME280;50945;44.472;-123.352;2023-03-01T00:34:03;99174.94;;;3.97;89.17
64551;BME280;50945;44.472;-123.352;2023-03-01T00:36:33;99178.28;;;3.91;88.46
64551;BME280;50945;44.472;-123.352;2023-03-01T00:39:00;99189.97;;;3.83;87.90
64551;BME280;50945;44.472;-123.352;2023-03-01T00:41:27;99187.28;;;3.75;88.91
64551;BME280;50945;44.472;-123.352;2023-03-01T00:43:54;99181.34;;;3.71;88.20
64551;BME280;50945;44.472;-123.352;2023-03-01T00:46:22;99188.63;;;3.71;88.32
64551;BME280;50945;44.472;-123.352;2023-03-01T00:48:50;99183.38;;;3.69;88.80
64551;BME280;50945;44.472;-123.352;2023-03-01T00:51:19;99191.50;;;3.69;89.03
64551;BME280;50945;44.472;-123.352;2023-03-01T00:53:46;99201.63;;;3.67;89.29
64551;BME280;50945;44.472;-123.352;2023-03-01T00:56:14;99207.19;;;3.66;90.43
64551;BME280;50945;44.472;-123.352;2023-03-01T00:58:41;99203.16;;;3.61;89.91
64551;BME280;50945;44.472;-123.352;2023-03-01T01:01:16;99201.13;;;3.55;90.93
64551;BME280;50945;44.472;-123.352;2023-03-01T01:03:45;99204.31;;;3.51;91.56
64551;BME280;50945;44.472;-123.352;2023-03-01T01:06:22;99211.91;;;3.39;90.95
64551;BME280;50945;44.472;-123.352;2023-03-01T01:08:49;99215.28;;;3.33;91.01
64551;BME280;50945;44.472;-123.352;2023-03-01T01:11:15;99212.41;;;3.26;90.92
64551;BME280;50945;44.472;-123.352;2023-03-01T01:13:45;99221.34;;;3.18;90.38
64551;BME280;50945;44.472;-123.352;2023-03-01T01:16:12;99224.16;;;3.09;90.92
64551;BME280;50945;44.472;-123.352;2023-03-01T01:18:41;99226.34;;;2.97;90.82
64551;BME280;50945;44.472;-123.352;2023-03-01T01:21:13;99242.97;;;2.84;91.43
64551;BME280;50945;44.472;-123.352;2023-03-01T01:23:41;99246.28;;;2.70;91.54
64551;BME280;50945;44.472;-123.352;2023-03-01T01:26:10;99256.03;;;2.62;91.84
64551;BME280;50945;44.472;-123.352;2023-03-01T01:28:37;99254.97;;;2.55;91.84
64551;BME280;50945;44.472;-123.352;2023-03-01T01:31:04;99251.59;;;2.53;91.96
64551;BME280;50945;44.472;-123.352;2023-03-01T01:33:31;99260.69;;;2.52;91.78
64551;BME280;50945;44.472;-123.352;2023-03-01T01:35:58;99258.84;;;2.53;92.51
64551;BME280;50945;44.472;-123.352;2023-03-01T01:38:24;99256.97;;;2.53;92.45
64551;BME280;50945;44.472;-123.352;2023-03-01T01:40:51;99262.22;;;2.55;92.50
64551;BME280;50945;44.472;-123.352;2023-03-01T01:43:30;99266.44;;;2.57;92.50
64551;BME280;50945;44.472;-123.352;2023-03-01T01:46:06;99273.84;;;2.55;92.01
64551;BME280;50945;44.472;-123.352;2023-03-01T01:48:46;99279.09;;;2.57;93.25
64551;BME280;50945;44.472;-123.352;2023-03-01T01:51:19;99279.41;;;2.54;93.36
64551;BME280;50945;44.472;-123.352;2023-03-01T01:53:51;99278.88;;;2.50;93.24
64551;BME280;50945;44.472;-123.352;2023-03-01T01:56:19;99284.94;;;2.44;93.37
64551;BME280;50945;44.472;-123.352;2023-03-01T01:58:47;99297.00;;;2.40;93.48
64551;BME280;50945;44.472;-123.352;2023-03-01T02:01:13;99297.97;;;2.31;94.34
64551;BME280;50945;44.472;-123.352;2023-03-01T02:03:42;99301.00;;;2.27;94.14
64551;BME280;50945;44.472;-123.352;2023-03-01T02:08:40;99305.34;;;2.20;93.55
64551;BME280;50945;44.472;-123.352;2023-03-01T02:11:08;99318.25;;;2.17;93.77
64551;BME280;50945;44.472;-123.352;2023-03-01T02:13:38;99307.81;;;2.14;93.91
64551;BME280;50945;44.472;-123.352;2023-03-01T02:16:15;99315.19;;;2.12;94.25
64551;BME280;50945;44.472;-123.352;2023-03-01T02:18:42;99321.59;;;2.11;94.96
64551;BME280;50945;44.472;-123.352;2023-03-01T02:21:17;99332.81;;;2.06;94.44
64551;BME280;50945;44.472;-123.352;2023-03-01T02:23:47;99336.00;;;2.01;94.26
64551;BME280;50945;44.472;-123.352;2023-03-01T02:26:30;99340.84;;;1.98;93.92
64551;BME280;50945;44.472;-123.352;2023-03-01T02:28:59;99358.31;;;1.94;94.65
64551;BME280;50945;44.472;-123.352;2023-03-01T02:31:25;99354.25;;;1.89;94.62
64551;BME280;50945;44.472;-123.352;2023-03-01T02:34:22;99362.97;;;1.83;95.14
64551;BME280;50945;44.472;-123.352;2023-03-01T02:36:54;99367.94;;;1.78;95.60
64551;BME280;50945;44.472;-123.352;2023-03-01T02:39:34;99372.81;;;1.75;95.14
64551;BME280;50945;44.472;-123.352;2023-03-01T02:42:11;99383.47;;;1.66;95.19
64551;BME280;50945;44.472;-123.352;2023-03-01T02:44:38;99385.34;;;1.66;95.79
64551;BME280;50945;44.472;-123.352;2023-03-01T02:47:05;99392.41;;;1.67;95.45
64551;BME280;50945;44.472;-123.352;2023-03-01T02:49:34;99389.69;;;1.67;95.38
64551;BME280;50945;44.472;-123.352;2023-03-01T02:52:24;99402.19;;;1.68;95.38
64551;BME280;50945;44.472;-123.352;2023-03-01T02:55:03;99406.75;;;1.67;95.84
64551;BME280;50945;44.472;-123.352;2023-03-01T02:57:31;99412.13;;;1.67;95.96
64551;BME280;50945;44.472;-123.352;2023-03-01T03:00:03;99411.97;;;1.69;96.22
64551;BME280;50945;44.472;-123.352;2023-03-01T03:02:33;99415.22;;;1.73;96.43
64551;BME280;50945;44.472;-123.352;2023-03-01T03:07:39;99424.00;;;1.75;95.60
64551;BME280;50945;44.472;-123.352;2023-03-01T03:10:09;99429.38;;;1.75;95.56
64551;BME280;50945;44.472;-123.352;2023-03-01T03:12:39;99437.47;;;1.75;95.60
64551;BME280;50945;44.472;-123.352;2023-03-01T03:15:07;99446.41;;;1.75;95.91
64551;BME280;50945;44.472;-123.352;2023-03-01T03:17:39;99449.38;;;1.72;95.84
64551;BME280;50945;44.472;-123.352;2023-03-01T03:20:11;99453.38;;;1.68;96.06
64551;BME280;50945;44.472;-123.352;2023-03-01T03:22:46;99457.78;;;1.69;96.46
64551;BME280;50945;44.472;-123.352;2023-03-01T03:25:16;99467.69;;;1.68;96.21
64551;BME280;50945;44.472;-123.352;2023-03-01T03:27:44;99474.09;;;1.67;96.14
64551;BME280;50945;44.472;-123.352;2023-03-01T03:30:14;99471.84;;;1.63;96.44
64551;BME280;50945;44.472;-123.352;2023-03-01T03:32:44;99481.09;;;1.60;95.85
64551;BME280;50945;44.472;-123.352;2023-03-01T03:35:23;99477.69;;;1.58;96.64
64551;BME280;50945;44.472;-123.352;2023-03-01T03:37:53;99484.06;;;1.57;96.21
64551;BME280;50945;44.472;-123.352;2023-03-01T03:40:34;99485.50;;;1.51;96.17
64551;BME280;50945;44.472;-123.352;2023-03-01T03:43:11;99490.03;;;1.51;96.47
64551;BME280;50945;44.472;-123.352;2023-03-01T03:45:37;99494.03;;;1.47;97.48
64551;BME280;50945;44.472;-123.352;2023-03-01T03:48:06;99481.84;;;1.43;96.13
64551;BME280;50945;44.472;-123.352;2023-03-01T03:50:33;99486.53;;;1.41;96.05
64551;BME280;50945;44.472;-123.352;2023-03-01T03:53:08;99476.34;;;1.35;97.21
64551;BME280;50945;44.472;-123.352;2023-03-01T03:55:35;99485.16;;;1.27;96.10
64551;BME280;50945;44.472;-123.352;2023-03-01T03:58:08;99490.41;;;1.19;95.70
64551;BME280;50945;44.472;-123.352;2023-03-01T04:00:41;99500.22;;;1.10;96.95
64551;BME280;50945;44.472;-123.352;2023-03-01T04:03:14;99497.84;;;1.07;96.75
64551;BME280;50945;44.472;-123.352;2023-03-01T04:05:41;99507.72;;;1.06;95.80
64551;BME280;50945;44.472;-123.352;2023-03-01T04:08:08;99500.09;;;1.02;96.39
64551;BME280;50945;44.472;-123.352;2023-03-01T04:13:05;99510.16;;;1.00;96.20
64551;BME280;50945;44.472;-123.352;2023-03-01T04:15:33;99515.56;;;1.00;97.23
64551;BME280;50945;44.472;-123.352;2023-03-01T04:18:00;99516.81;;;0.95;97.39
64551;BME280;50945;44.472;-123.352;2023-03-01T04:20:32;99518.66;;;0.95;96.41
64551;BME280;50945;44.472;-123.352;2023-03-01T04:23:15;99518.81;;;0.93;96.46
64551;BME280;50945;44.472;-123.352;2023-03-01T04:25:53;99526.03;;;0.93;96.51
64551;BME280;50945;44.472;-123.352;2023-03-01T04:28:22;99531.41;;;0.93;96.70
64551;BME280;50945;44.472;-123.352;2023-03-01T04:30:51;99536.09;;;0.91;96.74
64551;BME280;50945;44.472;-123.352;2023-03-01T04:33:19;99542.47;;;0.90;97.06
64551;BME280;50945;44.472;-123.352;2023-03-01T04:35:46;99543.31;;;0.90;97.54
64551;BME280;50945;44.472;-123.352;2023-03-01T04:38:16;99547.00;;;0.89;97.08
64551;BME280;50945;44.472;-123.352;2023-03-01T04:40:43;99545.28;;;0.88;96.51
64551;BME280;50945;44.472;-123.352;2023-03-01T04:43:10;99561.88;;;0.84;96.55
64551;BME280;50945;44.472;-123.352;2023-03-01T04:45:37;99558.75;;;0.79;96.31
64551;BME280;50945;44.472;-123.352;2023-03-01T04:48:04;99563.00;;;0.71;95.79
64551;BME280;50945;44.472;-123.352;2023-03-01T04:50:31;99567.97;;;0.66;96.51
64551;BME280;50945;44.472;-123.352;2023-03-01T04:52:57;99567.53;;;0.61;96.91
64551;BME280;50945;44.472;-123.352;2023-03-01T04:55:30;99574.31;;;0.55;98.80
64551;BME280;50945;44.472;-123.352;2023-03-01T04:57:59;99576.44;;;0.52;99.04
64551;BME280;50945;44.472;-123.352;2023-03-01T05:00:25;99577.69;;;0.48;97.70
64551;BME280;50945;44.472;-123.352;2023-03-01T05:02:56;99586.06;;;0.45;97.83
64551;BME280;50945;44.472;-123.352;2023-03-01T05:05:27;99597.09;;;0.42;99.83
64551;BME280;50945;44.472;-123.352;2023-03-01T05:07:57;99601.88;;;0.38;97.74
64551;BME280;50945;44.472;-123.352;2023-03-01T05:10:26;99606.69;;;0.34;97.50
64551;BME280;50945;44.472;-123.352;2023-03-01T05:12:52;99604.13;;;0.33;98.57
64551;BME280;50945;44.472;-123.352;2023-03-01T05:15:19;99609.78;;;0.30;97.54
64551;BME280;50945;44.472;-123.352;2023-03-01T05:17:48;99611.75;;;0.28;98.27
64551;BME280;50945;44.472;-123.352;2023-03-01T05:20:15;99617.97;;;0.28;98.56
64551;BME280;50945;44.472;-123.352;2023-03-01T05:22:42;99626.78;;;0.30;98.14
64551;BME280;50945;44.472;-123.352;2023-03-01T05:25:08;99633.00;;;0.31;98.11
64551;BME280;50945;44.472;-123.352;2023-03-01T05:27:35;99634.09;;;0.28;98.17
64551;BME280;50945;44.472;-123.352;2023-03-01T05:30:02;99637.94;;;0.26;99.02
64551;BME280;50945;44.472;-123.352;2023-03-01T05:32:41;99649.53;;;0.26;98.98
64551;BME280;50945;44.472;-123.352;2023-03-01T05:35:11;99658.59;;;0.25;98.61
64551;BME280;50945;44.472;-123.352;2023-03-01T05:37:42;99657.88;;;0.23;98.39
64551;BME280;50945;44.472;-123.352;2023-03-01T05:40:11;99658.84;;;0.22;98.47
64551;BME280;50945;44.472;-123.352;2023-03-01T05:42:43;99668.03;;;0.19;98.35
64551;BME280;50945;44.472;-123.352;2023-03-01T05:45:10;99664.63;;;0.17;98.30
64551;BME280;50945;44.472;-123.352;2023-03-01T05:47:39;99668.72;;;0.12;98.77
64551;BME280;50945;44.472;-123.352;2023-03-01T05:50:35;99676.78;;;0.12;98.49
64551;BME280;50945;44.472;-123.352;2023-03-01T05:53:05;99681.44;;;0.10;98.67
64551;BME280;50945;44.472;-123.352;2023-03-01T05:55:34;99683.41;;;0.08;99.14
64551;BME280;50945;44.472;-123.352;2023-03-01T05:58:03;99680.84;;;0.06;98.81
64551;BME280;50945;44.472;-123.352;2023-03-01T06:00:31;99688.22;;;0.04;99.18
64551;BME280;50945;44.472;-123.352;2023-03-01T06:02:59;99693.72;;;0.03;98.89
64551;BME280;50945;44.472;-123.352;2023-03-01T06:05:26;99701.91;;;0.01;99.09
64551;BME280;50945;44.472;-123.352;2023-03-01T06:07:53;99701.91;;;0.01;99.08
64551;BME280;50945;44.472;-123.352;2023-03-01T06:10:21;99701.06;;;0.01;98.77
64551;BME280;50945;44.472;-123.352;2023-03-01T06:12:48;99695.94;;;-0.03;99.00
64551;BME280;50945;44.472;-123.352;2023-03-01T06:15:16;99708.66;;;-0.05;99.06
64551;BME280;50945;44.472;-123.352;2023-03-01T06:17:44;99711.22;;;-0.03;99.36
64551;BME280;50945;44.472;-123.352;2023-03-01T06:20:17;99720.84;;;-0.01;99.45
64551;BME280;50945;44.472;-123.352;2023-03-01T06:22:44;99729.50;;;0.03;99.63
64551;BME280;50945;44.472;-123.352;2023-03-01T06:25:12;99731.66;;;0.09;99.78
64551;BME280;50945;44.472;-123.352;2023-03-01T06:27:39;99730.53;;;0.12;99.93
64551;BME280;50945;44.472;-123.352;2023-03-01T06:30:06;99736.75;;;0.12;99.64
64551;BME280;50945;44.472;-123.352;2023-03-01T06:32:33;99741.88;;;0.15;99.28
64551;BME280;50945;44.472;-123.352;2023-03-01T06:34:59;99743.47;;;0.18;98.85
64551;BME280;50945;44.472;-123.352;2023-03-01T06:37:29;99752.38;;;0.18;99.02
64551;BME280;50945;44.472;-123.352;2023-03-01T06:39:55;99758.59;;;0.19;98.92
64551;BME280;50945;44.472;-123.352;2023-03-01T06:42:22;99763.13;;;0.18;99.08
64551;BME280;50945;44.472;-123.352;2023-03-01T06:44:48;99767.50;;;0.19;99.06
64551;BME280;50945;44.472;-123.352;2023-03-01T06:47:14;99770.19;;;0.19;98.97
64551;BME280;50945;44.472;-123.352;2023-03-01T06:49:41;99778.41;;;0.18;98.89
64551;BME280;50945;44.472;-123.352;2023-03-01T06:52:07;99785.59;;;0.17;98.89
64551;BME280;50945;44.472;-123.352;2023-03-01T06:54:34;99788.41;;;0.16;98.79
64551;BME280;50945;44.472;-123.352;2023-03-01T06:57:00;99790.38;;;0.14;99.00
64551;BME280;50945;44.472;-123.352;2023-03-01T06:59:26;99795.75;;;0.14;98.38
64551;BME280;50945;44.472;-123.352;2023-03-01T07:01:52;99789.53;;;0.13;98.75
64551;BME280;50945;44.472;-123.352;2023-03-01T07:04:19;99798.56;;;0.12;98.60
64551;BME280;50945;44.472;-123.352;2023-03-01T07:06:45;99805.91;;;0.10;98.73
64551;BME280;50945;44.472;-123.352;2023-03-01T07:09:11;99803.34;;;0.09;98.46
64551;BME280;50945;44.472;-123.352;2023-03-01T07:11:38;99809.88;;;0.06;98.73
64551;BME280;50945;44.472;-123.352;2023-03-01T07:14:04;99828.69;;;0.06;98.72
64551;BME280;50945;44.472;-123.352;2023-03-01T07:16:31;99833.34;;;0.04;98.70
64551;BME280;50945;44.472;-123.352;2023-03-01T07:18:57;99834.19;;;0.05;98.73
64551;BME280;50945;44.472;-123.352;2023-03-01T07:21:24;99852.28;;;0.03;98.87
64551;BME280;50945;44.472;-123.352;2023-03-01T07:23:51;99844.22;;;0.03;98.70
64551;BME280;50945;44.472;-123.352;2023-03-01T07:26:17;99866.56;;;0.03;99.09
64551;BME280;50945;44.472;-123.352;2023-03-01T07:28:43;99868.53;;;0.01;98.67
64551;BME280;50945;44.472;-123.352;2023-03-01T07:31:09;99876.84;;;-0.02;98.07
64551;BME280;50945;44.472;-123.352;2023-03-01T07:33:35;99877.25;;;-0.07;97.93
64551;BME280;50945;44.472;-123.352;2023-03-01T07:36:03;99874.19;;;-0.13;98.87
64551;BME280;50945;44.472;-123.352;2023-03-01T07:38:30;99874.44;;;-0.16;99.27
64551;BME280;50945;44.472;-123.352;2023-03-01T07:41:01;99880.69;;;-0.16;99.44
64551;BME280;50945;44.472;-123.352;2023-03-01T07:43:29;99892.41;;;-0.17;99.18
64551;BME280;50945;44.472;-123.352;2023-03-01T07:45:59;99891.44;;;-0.16;99.29
64551;BME280;50945;44.472;-123.352;2023-03-01T07:48:26;99905.00;;;-0.17;99.98
64551;BME280;50945;44.472;-123.352;2023-03-01T07:50:52;99912.78;;;-0.14;99.83
64551;BME280;50945;44.472;-123.352;2023-03-01T07:53:19;99913.78;;;-0.15;99.44
64551;BME280;50945;44.472;-123.352;2023-03-01T07:55:45;99920.25;;;-0.18;99.67
64551;BME280;50945;44.472;-123.352;2023-03-01T07:58:11;99922.09;;;-0.18;99.60
64551;BME280;50945;44.472;-123.352;2023-03-01T08:00:37;99924.06;;;-0.21;99.79
64551;BME280;50945;44.472;-123.352;2023-03-01T08:03:04;99926.63;;;-0.19;100.00
64551;BME280;50945;44.472;-123.352;2023-03-01T08:05:30;99929.19;;;-0.17;99.84
64551;BME280;50945;44.472;-123.352;2023-03-01T08:07:56;99937.25;;;-0.17;99.96
64551;BME280;50945;44.472;-123.352;2023-03-01T08:10:25;99936.25;;;-0.16;99.48
64551;BME280;50945;44.472;-123.352;2023-03-01T08:12:52;99944.19;;;-0.15;99.87
64551;BME280;50945;44.472;-123.352;2023-03-01T08:15:18;99949.19;;;-0.10;100.00
64551;BME280;50945;44.472;-123.352;2023-03-01T08:17:45;99953.44;;;-0.08;99.49
64551;BME280;50945;44.472;-123.352;2023-03-01T08:20:11;99955.28;;;-0.08;99.02
64551;BME280;50945;44.472;-123.352;2023-03-01T08:22:38;99954.44;;;-0.09;98.97
64551;BME280;50945;44.472;-123.352;2023-03-01T08:25:04;99964.19;;;-0.08;99.10
64551;BME280;50945;44.472;-123.352;2023-03-01T08:27:31;99957.84;;;-0.07;99.11
64551;BME280;50945;44.472;-123.352;2023-03-01T08:29:57;99968.59;;;-0.07;98.91
64551;BME280;50945;44.472;-123.352;2023-03-01T08:32:23;99958.09;;;-0.10;98.72
64551;BME280;50945;44.472;-123.352;2023-03-01T08:34:49;99971.78;;;-0.13;99.46
64551;BME280;50945;44.472;-123.352;2023-03-01T08:37:16;99977.28;;;-0.14;99.18
64551;BME280;50945;44.472;-123.352;2023-03-01T08:39:42;99974.88;;;-0.17;98.88
64551;BME280;50945;44.472;-123.352;2023-03-01T08:42:08;99965.19;;;-0.20;98.79
64551;BME280;50945;44.472;-123.352;2023-03-01T08:44:35;99974.38;;;-0.23;98.85
64551;BME280;50945;44.472;-123.352;2023-03-01T08:47:01;99968.41;;;-0.26;98.95
64551;BME280;50945;44.472;-123.352;2023-03-01T08:49:27;99980.34;;;-0.30;99.01
64551;BME280;50945;44.472;-123.352;2023-03-01T08:51:54;99985.28;;;-0.35;98.60
64551;BME280;50945;44.472;-123.352;2023-03-01T08:54:21;99990.75;;;-0.48;98.07
64551;BME280;50945;44.472;-123.352;2023-03-01T08:56:48;99991.72;;;-0.61;97.99
64551;BME280;50945;44.472;-123.352;2023-03-01T08:59:15;99989.66;;;-0.68;98.65
64551;BME280;50945;44.472;-123.352;2023-03-01T09:01:42;99990.16;;;-0.74;98.71
64551;BME280;50945;44.472;-123.352;2023-03-01T09:04:10;99994.31;;;-0.82;99.00
64551;BME280;50945;44.472;-123.352;2023-03-01T09:06:36;99994.66;;;-0.86;100.00
64551;BME280;50945;44.472;-123.352;2023-03-01T09:09:04;99986.00;;;-0.90;100.00
64551;BME280;50945;44.472;-123.352;2023-03-01T09:11:31;99989.75;;;-0.92;100.00
64551;BME280;50945;44.472;-123.352;2023-03-01T09:13:57;99995.13;;;-0.92;99.92
64551;BME280;50945;44.472;-123.352;2023-03-01T09:16:23;99995.38;;;-0.96;100.00
64551;BME280;50945;44.472;-123.352;2023-03-01T09:18:51;100001.81;;;-0.98;100.00
64551;BME280;50945;44.472;-123.352;2023-03-01T09:21:19;99995.09;;;-1.04;99.55
64551;BME280;50945;44.472;-123.352;2023-03-01T09:23:47;100002.66;;;-1.09;99.59
64551;BME280;50945;44.472;-123.352;2023-03-01T09:26:23;100001.19;;;-1.13;99.83
64551;BME280;50945;44.472;-123.352;2023-03-01T09:28:52;100014.00;;;-1.17;100.00
64551;BME280;50945;44.472;-123.352;2023-03-01T09:31:20;100017.63;;;-1.18;100.00
64551;BME280;50945;44.472;-123.352;2023-03-01T09:33:49;100017.00;;;-1.21;100.00
64551;BME280;50945;44.472;-123.352;2023-03-01T09:36:20;100028.84;;;-1.24;99.93
64551;BME280;50945;44.472;-123.352;2023-03-01T09:38:47;100016.66;;;-1.28;100.00
64551;BME280;50945;44.472;-123.352;2023-03-01T09:44:03;100049.28;;;-1.34;99.53
64551;BME280;50945;44.472;-123.352;2023-03-01T09:46:40;100052.19;;;-1.37;100.00
64551;BME280;50945;44.472;-123.352;2023-03-01T09:49:24;100060.50;;;-1.40;100.00
64551;BME280;50945;44.472;-123.352;2023-03-01T09:54:22;100060.59;;;-1.42;99.84
64551;BME280;50945;44.472;-123.352;2023-03-01T10:00:12;100065.59;;;-1.37;100.00
64551;BME280;50945;44.472;-123.352;2023-03-01T10:03:04;100065.38;;;-1.34;100.00
64551;BME280;50945;44.472;-123.352;2023-03-01T10:06:14;100065.25;;;-1.32;100.00
64551;BME280;50945;44.472;-123.352;2023-03-01T10:08:42;100073.09;;;-1.29;99.60
64551;BME280;50945;44.472;-123.352;2023-03-01T10:11:35;100089.06;;;-1.28;99.57
64551;BME280;50945;44.472;-123.352;2023-03-01T10:17:08;100074.66;;;-1.27;99.90
64551;BME280;50945;44.472;-123.352;2023-03-01T10:19:42;100087.22;;;-1.27;100.00
64551;BME280;50945;44.472;-123.352;2023-03-01T10:22:26;100088.06;;;-1.27;100.00
64551;BME280;50945;44.472;-123.352;2023-03-01T10:24:56;100090.88;;;-1.28;99.68
64551;BME280;50945;44.472;-123.352;2023-03-01T10:27:25;100085.88;;;-1.33;99.36
64551;BME280;50945;44.472;-123.352;2023-03-01T10:32:46;100104.69;;;-1.46;99.28
64551;BME280;50945;44.472;-123.352;2023-03-01T10:35:27;100103.53;;;-1.55;99.64
64551;BME280;50945;44.472;-123.352;2023-03-01T10:40:32;100124.72;;;-1.63;99.52
64551;BME280;50945;44.472;-123.352;2023-03-01T10:43:01;100129.44;;;-1.66;100.00
64551;BME280;50945;44.472;-123.352;2023-03-01T10:45:33;100123.34;;;-1.68;100.00
64551;BME280;50945;44.472;-123.352;2023-03-01T10:48:24;100134.06;;;-1.68;100.00
64551;BME280;50945;44.472;-123.352;2023-03-01T10:53:33;100151.63;;;-1.64;100.00
64551;BME280;50945;44.472;-123.352;2023-03-01T10:56:11;100160.41;;;-1.62;100.00
64551;BME280;50945;44.472;-123.352;2023-03-01T11:01:29;100167.81;;;-1.66;100.00
64551;BME280;50945;44.472;-123.352;2023-03-01T11:06:40;100171.03;;;-1.61;100.00
64551;BME280;50945;44.472;-123.352;2023-03-01T11:09:17;100182.59;;;-1.60;100.00
64551;BME280;50945;44.472;-123.352;2023-03-01T11:11:44;100185.28;;;-1.60;100.00
64551;BME280;50945;44.472;-123.352;2023-03-01T11:14:18;100194.06;;;-1.58;100.00
64551;BME280;50945;44.472;-123.352;2023-03-01T11:16:47;100199.31;;;-1.57;100.00
64551;BME280;50945;44.472;-123.352;2023-03-01T11:19:17;100200.94;;;-1.54;100.00
64551;BME280;50945;44.472;-123.352;2023-03-01T11:21:53;100209.50;;;-1.49;99.55
64551;BME280;50945;44.472;-123.352;2023-03-01T11:24:26;100215.59;;;-1.47;99.53
64551;BME280;50945;44.472;-123.352;2023-03-01T11:26:55;100223.28;;;-1.42;98.69
64551;BME280;50945;44.472;-123.352;2023-03-01T11:29:44;100225.88;;;-1.41;99.28
64551;BME280;50945;44.472;-123.352;2023-03-01T11:32:14;100224.91;;;-1.40;99.46
64551;BME280;50945;44.472;-123.352;2023-03-01T11:34:57;100227.38;;;-1.37;99.34
64551;BME280;50945;44.472;-123.352;2023-03-01T11:40:13;100225.34;;;-1.33;98.74
64551;BME280;50945;44.472;-123.352;2023-03-01T12:14:23;100265.78;;;-1.36;99.19
64551;BME280;50945;44.472;-123.352;2023-03-01T12:20:09;100272.44;;;-1.42;99.61
64551;BME280;50945;44.472;-123.352;2023-03-01T12:25:47;100292.50;;;-1.47;99.39
64551;BME280;50945;44.472;-123.352;2023-03-01T12:45:02;100350.53;;;-1.59;100.00
64551;BME280;50945;44.472;-123.352;2023-03-01T12:50:40;100355.03;;;-1.60;100.00
64551;BME280;50945;44.472;-123.352;2023-03-01T12:53:26;100377.44;;;-1.61;100.00
64551;BME280;50945;44.472;-123.352;2023-03-01T12:55:56;100395.34;;;-1.61;100.00
64551;BME280;50945;44.472;-123.352;2023-03-01T12:58:32;100397.50;;;-1.66;100.00
64551;BME280;50945;44.472;-123.352;2023-03-01T13:09:24;100422.19;;;-1.88;100.00
64551;BME280;50945;44.472;-123.352;2023-03-01T13:11:54;100429.38;;;-1.89;100.00
64551;BME280;50945;44.472;-123.352;2023-03-01T13:16:47;100430.25;;;-1.88;99.85
64551;BME280;50945;44.472;-123.352;2023-03-01T13:19:27;100436.69;;;-1.91;99.58
64551;BME280;50945;44.472;-123.352;2023-03-01T13:21:58;100437.94;;;-1.97;99.00
64551;BME280;50945;44.472;-123.352;2023-03-01T13:29:54;100446.75;;;-1.95;100.00
64551;BME280;50945;44.472;-123.352;2023-03-01T13:37:41;100459.84;;;-1.90;100.00
64551;BME280;50945;44.472;-123.352;2023-03-01T13:42:54;100465.06;;;-1.88;99.62
64551;BME280;50945;44.472;-123.352;2023-03-01T13:48:03;100478.72;;;-1.92;99.23
64551;BME280;50945;44.472;-123.352;2023-03-01T13:50:38;100491.34;;;-1.94;98.95
64551;BME280;50945;44.472;-123.352;2023-03-01T13:53:12;100474.63;;;-1.97;99.13
64551;BME280;50945;44.472;-123.352;2023-03-01T13:55:47;100484.66;;;-2.01;99.21
64551;BME280;50945;44.472;-123.352;2023-03-01T13:58:26;100493.66;;;-2.02;99.29
64551;BME280;50945;44.472;-123.352;2023-03-01T14:01:06;100503.41;;;-2.01;99.67
64551;BME280;50945;44.472;-123.352;2023-03-01T14:03:41;100506.06;;;-2.01;100.00
64551;BME280;50945;44.472;-123.352;2023-03-01T14:06:12;100519.59;;;-2.02;99.91
64551;BME280;50945;44.472;-123.352;2023-03-01T14:08:39;100521.50;;;-2.04;99.87
64551;BME280;50945;44.472;-123.352;2023-03-01T14:19:26;100537.78;;;-2.07;100.00
64551;BME280;50945;44.472;-123.352;2023-03-01T14:22:23;100545.06;;;-2.09;100.00
64551;BME280;50945;44.472;-123.352;2023-03-01T14:25:28;100541.41;;;-2.08;100.00
64551;BME280;50945;44.472;-123.352;2023-03-01T14:30:48;100549.56;;;-2.10;100.00
64551;BME280;50945;44.472;-123.352;2023-03-01T14:33:30;100548.69;;;-2.11;100.00
64551;BME280;50945;44.472;-123.352;2023-03-01T14:36:25;100550.53;;;-2.11;100.00
64551;BME280;50945;44.472;-123.352;2023-03-01T14:38:51;100555.88;;;-2.11;100.00
64551;BME280;50945;44.472;-123.352;2023-03-01T14:41:19;100554.16;;;-2.12;100.00
64551;BME280;50945;44.472;-123.352;2023-03-01T14:43:46;100557.91;;;-2.15;100.00
64551;BME280;50945;44.472;-123.352;2023-03-01T14:49:05;100560.00;;;-2.20;99.91
64551;BME280;50945;44.472;-123.352;2023-03-01T14:51:41;100558.59;;;-2.25;100.00
64551;BME280;50945;44.472;-123.352;2023-03-01T14:54:27;100557.25;;;-2.33;99.65
64551;BME280;50945;44.472;-123.352;2023-03-01T14:56:59;100562.03;;;-2.38;99.72
64551;BME280;50945;44.472;-123.352;2023-03-01T14:59:29;100563.06;;;-2.40;100.00
64551;BME280;50945;44.472;-123.352;2023-03-01T15:01:57;100564.72;;;-2.38;100.00